This is the latest recevied weather packets stored in our database for station/object K3SV. If no packets are shown the sender has not sent any weather packets the latest 10 day(s).
| Time | Temp. | Humidity | Pressure | Rain* | Wind** | Luminosity | Snow |
|---|---|---|---|---|---|---|---|
| 1778093317 | 32.78° C | 49% | 1015.7 hPa | 0 mm | - | 738 W/m² | - |
| 1778093014 | 33.33° C | 47% | 1015.8 hPa | 0 mm | - | 392 W/m² | - |
| 1778092712 | 32.78° C | 48% | 1015.9 hPa | 0 mm | - | 682 W/m² | - |
| 1778092406 | 32.22° C | 48% | 1016 hPa | 0 mm | - | 735 W/m² | - |
| 1778092105 | 32.78° C | 46% | 1016 hPa | 0 mm | - | 630 W/m² | - |
| 1778091801 | 32.78° C | 46% | 1016.1 hPa | 0 mm | - | 722 W/m² | - |
| 1778091499 | 32.78° C | 48% | 1016 hPa | 0 mm | - | 707 W/m² | - |
| 1778091196 | 32.22° C | 49% | 1016.1 hPa | 0 mm | - | 722 W/m² | - |
| 1778090894 | 32.22° C | 48% | 1016.1 hPa | 0 mm | - | 750 W/m² | - |
| 1778090589 | 32.22° C | 48% | 1016.4 hPa | 0 mm | - | 745 W/m² | - |
| 1778090286 | 31.67° C | 49% | 1016.3 hPa | 0 mm | - | 625 W/m² | - |
| 1778089983 | 31.67° C | 50% | 1016.2 hPa | 0 mm | - | 703 W/m² | - |
| 1778089680 | 32.22° C | 50% | 1016.4 hPa | 0 mm | - | 684 W/m² | - |
| 1778089377 | 32.22° C | 50% | 1016.3 hPa | 0 mm | - | 623 W/m² | - |
| 1778089075 | 31.67° C | 51% | 1016.4 hPa | 0 mm | - | 678 W/m² | - |
| 1778088772 | 31.11° C | 51% | 1016.6 hPa | 0 mm | - | 769 W/m² | - |
| 1778088468 | 31.11° C | 52% | 1016.6 hPa | 0 mm | - | 737 W/m² | - |
| 1778088165 | 30.56° C | 53% | 1016.6 hPa | 0 mm | - | 726 W/m² | - |
| 1778087863 | 32.22° C | 51% | 1016.7 hPa | 0 mm | - | 763 W/m² | - |
| 1778087560 | 31.67° C | 49% | 1016.7 hPa | 0 mm | - | 746 W/m² | - |
| 1778087257 | 31.67° C | 52% | 1017 hPa | 0 mm | - | 719 W/m² | - |
| 1778086953 | 31.11° C | 53% | 1016.8 hPa | 0 mm | - | 745 W/m² | - |
| 1778086652 | 31.11° C | 53% | 1017.1 hPa | 0 mm | - | 721 W/m² | - |
| 1778086349 | 31.67° C | 51% | 1017 hPa | 0 mm | - | 752 W/m² | - |
| 1778086046 | 30.56° C | 55% | 1017 hPa | 0 mm | - | 719 W/m² | - |
* Rain latest hour (hover to see other rain measurements)
** Current wind speed in m/s (hover to see current wind gust speed)